createdAt,value
2018-12-27T15:21:41.466Z,2.90
2018-12-27T15:22:18.038Z,2.75
2018-12-27T15:23:23.163Z,2.15
2018-12-27T15:24:30.999Z,2.90
2018-12-27T15:25:30.664Z,2.62
2018-12-27T15:26:04.340Z,2.75
2018-12-27T15:26:37.844Z,3.95
2018-12-27T15:27:11.325Z,2.90
2018-12-27T15:27:44.768Z,2.70
2018-12-27T15:28:55.160Z,3.00
2018-12-27T15:29:28.655Z,2.80
2018-12-27T15:30:41.447Z,2.87
2018-12-27T15:31:53.222Z,2.80
2018-12-27T15:32:26.725Z,2.80
2018-12-27T15:33:32.752Z,2.25
2018-12-27T15:34:06.286Z,2.70
2018-12-27T15:34:39.732Z,2.65
2018-12-27T15:35:13.347Z,2.97
2018-12-27T15:35:46.900Z,2.45
2018-12-27T15:36:54.311Z,2.90
2018-12-27T15:37:24.305Z,2.92
2018-12-27T15:37:57.824Z,2.85
2018-12-27T15:38:31.502Z,2.70
2018-12-27T15:39:06.301Z,2.85
2018-12-27T15:39:39.908Z,2.40
2018-12-27T15:40:13.530Z,2.70
2018-12-27T15:40:47.017Z,2.47
2018-12-27T15:41:20.565Z,2.83
2018-12-27T15:42:36.960Z,2.55
2018-12-27T15:43:10.589Z,3.10
2018-12-27T15:44:51.064Z,3.45
2018-12-27T15:45:24.751Z,3.10
2018-12-27T15:45:58.236Z,2.70
2018-12-27T15:46:32.025Z,3.05
2018-12-27T15:47:05.862Z,2.92
2018-12-27T15:47:39.448Z,3.33
2018-12-27T15:48:12.995Z,2.60
2018-12-27T15:49:43.197Z,3.30
2018-12-27T15:52:27.921Z,3.10
2018-12-27T15:53:01.565Z,2.65
2018-12-27T15:54:05.663Z,3.15
2018-12-27T15:54:39.218Z,2.70
2018-12-27T15:55:13.101Z,3.15
2018-12-27T15:55:47.740Z,3.80
2018-12-27T15:56:21.315Z,3.80
2018-12-27T15:56:54.875Z,3.40
2018-12-27T15:57:28.433Z,3.72
2018-12-27T15:58:01.936Z,3.12
2018-12-27T15:58:38.057Z,3.62
2018-12-27T15:59:11.868Z,3.25
2018-12-27T15:59:45.541Z,4.25
2018-12-27T16:00:18.974Z,3.90
2018-12-27T16:00:52.552Z,3.33
2018-12-27T16:01:26.168Z,3.10
2018-12-27T16:01:59.585Z,3.10
2018-12-27T16:02:33.114Z,3.40
2018-12-27T16:03:06.623Z,3.62
2018-12-27T16:03:40.116Z,2.92
2018-12-27T16:04:13.595Z,3.95
2018-12-27T16:04:47.021Z,3.58
2018-12-27T16:05:20.610Z,3.60
2018-12-27T16:05:54.037Z,4.58
2018-12-27T16:06:27.534Z,3.52
2018-12-27T16:07:02.032Z,2.58
2018-12-27T16:07:35.901Z,2.87
2018-12-27T16:08:09.399Z,3.00
2018-12-27T16:08:42.938Z,3.52
2018-12-27T16:11:11.659Z,2.80
2018-12-27T16:17:44.314Z,10.28
2018-12-27T16:18:17.811Z,8.60
2018-12-27T16:18:51.385Z,9.68
2018-12-27T16:19:24.977Z,10.25
2018-12-27T16:19:58.519Z,10.23
2018-12-27T16:20:32.392Z,10.00
2018-12-27T16:21:05.974Z,10.25
2018-12-27T16:21:40.924Z,9.63
2018-12-27T16:22:17.256Z,9.70
2018-12-27T16:22:50.836Z,10.43
2018-12-27T16:23:24.355Z,11.30
2018-12-27T16:23:57.974Z,10.60
2018-12-27T16:24:31.452Z,10.58
2018-12-27T16:25:05.205Z,10.88
2018-12-27T16:25:41.769Z,10.93
2018-12-27T16:26:15.384Z,11.63
2018-12-27T16:26:48.913Z,13.30
2018-12-27T16:27:22.458Z,10.63
2018-12-27T16:27:56.118Z,11.63
2018-12-27T16:28:29.717Z,11.97
2018-12-27T16:29:03.273Z,11.93
2018-12-27T16:29:36.808Z,11.48
2018-12-27T16:30:10.294Z,11.78
2018-12-27T16:30:43.906Z,10.80
2018-12-27T16:31:17.517Z,11.48
2018-12-27T16:31:51.058Z,13.25
2018-12-27T16:32:24.648Z,12.40
2018-12-27T16:32:58.169Z,11.60
2018-12-27T16:33:31.693Z,11.93
2018-12-27T16:34:05.273Z,11.20
2018-12-27T16:34:38.778Z,12.40
2018-12-27T16:35:12.527Z,12.37
2018-12-27T16:36:41.410Z,12.07
2018-12-27T16:37:15.593Z,12.45
2018-12-27T16:37:49.175Z,12.10
2018-12-27T16:38:22.701Z,12.63
2018-12-27T16:38:56.258Z,12.35
2018-12-27T16:39:30.024Z,13.30
2018-12-27T16:40:03.994Z,13.85
2018-12-27T16:40:37.589Z,13.30
2018-12-27T16:41:11.111Z,14.07
2018-12-27T16:41:44.608Z,13.78
2018-12-27T16:42:21.816Z,12.47
2018-12-27T16:42:53.767Z,13.35
2018-12-27T16:43:27.927Z,13.00
2018-12-27T16:44:16.245Z,13.62
2018-12-27T16:45:08.872Z,11.68
2018-12-27T16:45:42.471Z,12.47
2018-12-27T16:46:16.308Z,12.47
2018-12-27T16:47:11.216Z,13.93
2018-12-27T16:47:50.744Z,13.85
2018-12-27T16:48:24.533Z,14.75
2018-12-27T16:48:59.450Z,13.08
2018-12-27T16:49:33.027Z,14.35
2018-12-27T16:50:11.640Z,12.75
2018-12-27T16:50:48.706Z,12.70
2018-12-27T16:51:22.481Z,13.88
2018-12-27T16:51:56.028Z,13.03
2018-12-27T16:52:29.683Z,12.85
2018-12-27T16:53:26.726Z,14.35
2018-12-27T16:54:19.495Z,13.70
2018-12-27T16:56:07.825Z,13.90
2018-12-27T16:56:41.770Z,13.55
2018-12-27T16:57:19.610Z,15.58
2018-12-27T16:57:50.776Z,42.23
2018-12-27T16:58:24.304Z,35.73
2018-12-27T16:58:57.822Z,36.17
2018-12-27T16:59:31.465Z,49.38
2018-12-27T17:00:06.022Z,49.53
2018-12-27T17:00:42.430Z,48.45
2018-12-27T17:01:15.975Z,44.33
2018-12-27T17:01:49.790Z,21.75
2018-12-27T17:02:23.304Z,24.55
2018-12-27T17:02:56.837Z,22.25
2018-12-27T17:03:30.392Z,20.72
2018-12-27T17:04:03.939Z,17.40
2018-12-27T17:04:37.554Z,18.25
2018-12-27T17:05:11.057Z,18.12
2018-12-27T17:05:44.668Z,26.95
2018-12-27T17:06:18.694Z,23.85
2018-12-27T17:06:52.512Z,21.02
2018-12-27T17:07:45.275Z,18.50
2018-12-27T17:08:18.832Z,19.62
2018-12-27T17:08:52.436Z,20.92
2018-12-27T17:09:26.028Z,16.52
2018-12-27T17:10:00.077Z,19.45
2018-12-27T17:10:33.994Z,19.25
2018-12-27T17:11:07.794Z,18.60
2018-12-27T17:11:41.609Z,17.23
2018-12-27T17:12:15.288Z,20.92
2018-12-27T17:12:49.032Z,29.95
2018-12-27T17:13:26.241Z,26.12
2018-12-27T17:14:05.911Z,20.92
2018-12-27T17:14:35.609Z,19.73
2018-12-27T17:15:09.499Z,20.35
2018-12-27T17:15:43.147Z,19.62
2018-12-27T17:16:16.743Z,17.30
2018-12-27T17:16:50.323Z,15.83
2018-12-27T17:17:24.018Z,14.68
2018-12-27T17:18:02.390Z,14.75
2018-12-27T17:18:38.837Z,14.70
2018-12-27T17:19:12.407Z,16.60
2018-12-27T17:19:46.052Z,15.65
2018-12-27T17:20:20.228Z,15.20
2018-12-27T17:20:53.983Z,14.85
2018-12-27T17:21:27.564Z,14.30
2018-12-27T17:22:01.206Z,14.53
2018-12-27T17:22:34.786Z,14.30
2018-12-27T17:23:08.307Z,13.65
2018-12-27T17:23:42.160Z,14.10
2018-12-27T17:24:16.273Z,14.30
2018-12-27T17:24:49.772Z,14.55
2018-12-27T17:25:23.322Z,13.58
2018-12-27T17:25:57.028Z,13.93
2018-12-27T17:26:30.664Z,14.90
2018-12-27T17:27:04.197Z,13.70
2018-12-27T17:27:37.704Z,14.20
2018-12-27T17:28:11.459Z,14.98
2018-12-27T17:28:44.938Z,14.40
2018-12-27T17:29:18.509Z,14.00
2018-12-27T17:29:52.101Z,13.75
2018-12-27T17:30:28.614Z,14.45
2018-12-27T17:31:21.286Z,13.88
2018-12-27T17:31:54.844Z,14.33
2018-12-27T17:32:47.532Z,14.15
2018-12-27T17:33:21.176Z,13.53
2018-12-27T17:33:54.754Z,13.03
2018-12-27T17:34:28.352Z,13.10
2018-12-27T17:35:01.914Z,15.78
2018-12-27T17:35:35.438Z,14.53
2018-12-27T17:36:09.009Z,13.30
2018-12-27T17:36:42.640Z,15.08
2018-12-27T17:37:23.184Z,14.05
2018-12-27T17:37:51.468Z,13.58
2018-12-27T17:38:25.034Z,14.23
2018-12-27T17:38:58.591Z,14.87
2018-12-27T17:39:32.179Z,13.62
2018-12-27T17:40:06.029Z,14.73
2018-12-27T17:40:39.680Z,14.15
2018-12-27T17:41:13.264Z,13.90
2018-12-27T17:41:46.747Z,13.93
2018-12-27T17:42:20.290Z,14.38
2018-12-27T17:42:53.822Z,13.45
2018-12-27T17:43:27.434Z,15.00
2018-12-27T17:44:00.989Z,18.37
2018-12-27T17:44:34.630Z,17.50
2018-12-27T17:45:08.283Z,16.93
2018-12-27T17:45:41.931Z,15.08
2018-12-27T17:46:15.514Z,15.45
2018-12-27T17:46:49.179Z,16.90
2018-12-27T17:47:22.792Z,14.83
2018-12-27T17:47:56.318Z,15.65
2018-12-27T17:48:30.146Z,15.20
2018-12-27T17:49:09.730Z,16.00
2018-12-27T17:49:43.246Z,18.30
2018-12-27T17:50:16.969Z,16.32
2018-12-27T17:50:50.490Z,14.87
2018-12-27T17:51:43.302Z,14.47
2018-12-27T17:52:17.223Z,14.83
2018-12-27T17:52:50.944Z,16.60
2018-12-27T17:53:24.763Z,15.28
2018-12-27T17:53:58.402Z,16.12
2018-12-27T17:54:32.101Z,15.85
2018-12-27T17:55:06.047Z,16.17
2018-12-27T17:55:39.862Z,15.05
2018-12-27T17:56:13.347Z,14.73
2018-12-27T17:57:42.700Z,15.30
2018-12-27T17:58:16.770Z,14.83
2018-12-27T17:58:51.730Z,13.70
2018-12-27T17:59:25.657Z,14.70
2018-12-27T17:59:59.356Z,14.98
2018-12-27T18:00:32.983Z,14.95
2018-12-27T18:01:06.973Z,15.13
2018-12-27T18:01:40.501Z,14.98
2018-12-27T18:02:14.952Z,13.72
2018-12-27T18:02:50.641Z,14.33
2018-12-27T18:03:24.734Z,14.28
2018-12-27T18:03:58.417Z,16.65
2018-12-27T18:04:32.175Z,15.83
2018-12-27T18:05:09.278Z,13.28
2018-12-27T18:05:43.910Z,13.70
2018-12-27T18:06:18.806Z,14.58
2018-12-27T18:06:52.363Z,13.60
2018-12-27T18:07:30.522Z,14.55
2018-12-27T18:08:01.580Z,14.20
2018-12-27T18:08:35.562Z,15.25
2018-12-27T18:09:09.246Z,14.68
2018-12-27T18:09:42.738Z,13.15
2018-12-27T18:10:16.325Z,14.20
2018-12-27T18:10:55.330Z,13.48
2018-12-27T18:11:31.101Z,14.20
2018-12-27T18:12:06.867Z,14.25
2018-12-27T18:12:42.006Z,14.40
2018-12-27T18:13:16.093Z,13.88
2018-12-27T18:13:50.788Z,12.58
2018-12-27T18:14:25.237Z,13.15
2018-12-27T18:15:00.170Z,14.03
2018-12-27T18:15:34.213Z,13.58
2018-12-27T18:16:09.774Z,12.82
2018-12-27T18:16:43.309Z,12.73
2018-12-27T18:17:18.135Z,12.93
2018-12-27T18:17:54.308Z,13.05
2018-12-27T18:18:29.757Z,13.80
2018-12-27T18:19:03.485Z,14.33
2018-12-27T18:19:37.109Z,12.25
2018-12-27T18:20:11.136Z,14.63
2018-12-27T18:20:45.595Z,12.70
2018-12-27T18:21:20.495Z,13.62
2018-12-27T18:21:54.053Z,14.95
2018-12-27T18:22:28.466Z,14.45
2018-12-27T18:23:02.375Z,13.62
2018-12-27T18:23:35.856Z,13.30
2018-12-27T18:24:09.725Z,12.43
2018-12-27T18:25:02.873Z,13.15
2018-12-27T18:25:36.449Z,13.10
2018-12-27T18:26:09.940Z,12.20
2018-12-27T18:26:43.779Z,12.90
2018-12-27T18:27:17.710Z,12.03
2018-12-27T18:27:51.479Z,13.72
2018-12-27T18:28:25.678Z,12.18
2018-12-27T18:28:59.209Z,12.45
2018-12-27T18:29:33.176Z,12.93
2018-12-27T18:30:08.234Z,12.68
2018-12-27T18:30:42.412Z,14.85
2018-12-27T18:31:16.921Z,12.07
2018-12-27T18:31:51.591Z,12.75
2018-12-27T18:32:25.485Z,13.85
2018-12-27T18:32:59.300Z,12.68
2018-12-27T18:33:32.901Z,13.90
2018-12-27T18:34:06.446Z,13.65
2018-12-27T18:34:40.891Z,12.85
2018-12-27T18:35:16.739Z,13.90
2018-12-27T18:35:51.528Z,13.32
2018-12-27T18:36:25.228Z,13.30
2018-12-27T18:36:59.200Z,13.30
2018-12-27T18:37:37.600Z,13.65
2018-12-27T18:39:05.321Z,14.25
2018-12-27T18:39:39.402Z,13.60
2018-12-27T18:40:13.182Z,12.95
2018-12-27T18:40:51.074Z,15.10
2018-12-27T18:41:25.405Z,14.07
2018-12-27T18:41:58.946Z,14.23
2018-12-27T18:42:41.508Z,14.43
2018-12-27T18:43:22.936Z,13.13
2018-12-27T18:43:57.550Z,12.65
2018-12-27T18:44:35.954Z,13.60
2018-12-27T18:45:10.216Z,12.95
2018-12-27T18:45:45.098Z,14.20
2018-12-27T18:46:18.698Z,13.88
2018-12-27T18:46:52.120Z,13.83
2018-12-27T18:47:27.328Z,13.58
2018-12-27T18:48:01.461Z,13.72
2018-12-27T18:48:35.104Z,13.18
2018-12-27T18:49:09.471Z,13.40
2018-12-27T18:49:44.954Z,13.55
2018-12-27T18:50:18.792Z,13.95
2018-12-27T18:50:52.661Z,12.70
2018-12-27T18:51:26.307Z,13.00
2018-12-27T18:52:00.438Z,13.45
2018-12-27T18:52:33.966Z,13.05
2018-12-27T18:53:08.341Z,13.60
2018-12-27T18:53:42.602Z,12.58
2018-12-27T18:54:16.107Z,13.32
2018-12-27T18:54:52.065Z,13.60
2018-12-27T18:55:30.157Z,12.85
2018-12-27T18:56:04.217Z,13.15
2018-12-27T18:56:40.600Z,13.80
2018-12-27T18:57:14.417Z,12.50
2018-12-27T18:57:47.919Z,13.40
2018-12-27T18:58:21.929Z,12.75
2018-12-27T18:58:56.542Z,13.38
2018-12-27T18:59:30.937Z,13.30
2018-12-27T19:00:05.228Z,12.18
2018-12-27T19:00:38.798Z,12.13
2018-12-27T19:01:16.854Z,13.05
2018-12-27T19:01:50.634Z,13.08
2018-12-27T19:02:24.813Z,12.07
2018-12-27T19:02:58.974Z,13.55
2018-12-27T19:03:33.539Z,13.90
2018-12-27T19:04:08.160Z,11.90
2018-12-27T19:04:42.883Z,13.70
2018-12-27T19:05:17.231Z,13.55
2018-12-27T19:05:51.231Z,13.10
2018-12-27T19:06:24.711Z,14.10
2018-12-27T19:06:59.341Z,13.32
2018-12-27T19:07:33.281Z,14.13
2018-12-27T19:08:06.815Z,12.80
2018-12-27T19:08:40.392Z,13.03
2018-12-27T19:09:14.471Z,12.82
2018-12-27T19:09:49.694Z,12.98
2018-12-27T19:10:23.209Z,12.90
2018-12-27T19:11:14.837Z,12.28
2018-12-27T19:12:06.271Z,13.20
2018-12-27T19:13:00.529Z,12.63
2018-12-27T19:13:34.070Z,11.93
2018-12-27T19:14:11.904Z,12.00
2018-12-27T19:14:46.333Z,13.38
2018-12-27T19:15:21.671Z,12.47
2018-12-27T19:15:58.168Z,13.60
2018-12-27T19:16:33.432Z,12.45
2018-12-27T19:17:08.776Z,14.15
2018-12-27T19:17:45.574Z,12.98
2018-12-27T19:18:23.799Z,12.85
2018-12-27T19:18:58.013Z,12.37
2018-12-27T19:19:34.341Z,14.03
2018-12-27T19:20:07.985Z,13.50
2018-12-27T19:20:42.571Z,12.63
2018-12-27T19:21:23.771Z,12.65
2018-12-27T19:22:02.299Z,15.08
2018-12-27T19:22:38.675Z,12.63
2018-12-27T19:23:15.754Z,14.20
2018-12-27T19:23:52.431Z,14.87
2018-12-27T19:24:33.043Z,15.83
2018-12-27T19:25:06.923Z,12.82
2018-12-27T19:25:40.807Z,13.62
2018-12-27T19:26:15.288Z,12.35
2018-12-27T19:26:48.723Z,13.40
2018-12-27T19:27:22.238Z,14.10
2018-12-27T19:27:55.731Z,14.10
2018-12-27T19:28:29.277Z,14.35
2018-12-27T19:29:02.857Z,13.85
2018-12-27T19:29:36.390Z,14.00
2018-12-27T19:30:10.118Z,13.35
2018-12-27T19:30:43.784Z,14.55
2018-12-27T19:31:17.290Z,13.80
2018-12-27T19:31:51.306Z,13.93
2018-12-27T19:32:24.869Z,14.78
2018-12-27T19:32:58.399Z,14.03
2018-12-27T19:33:31.928Z,12.40
2018-12-27T19:34:05.648Z,12.15
2018-12-27T19:34:39.218Z,13.72
2018-12-27T19:35:12.755Z,13.15
2018-12-27T19:35:46.276Z,14.28
2018-12-27T19:36:19.856Z,14.50
2018-12-27T19:36:53.388Z,14.60
2018-12-27T19:37:26.837Z,14.07
2018-12-27T19:38:00.496Z,13.48
2018-12-27T19:38:34.422Z,14.40
2018-12-27T19:39:07.995Z,13.53
2018-12-27T19:39:41.492Z,13.80
2018-12-27T19:40:15.171Z,13.88
2018-12-27T19:40:49.610Z,15.18
2018-12-27T19:41:23.510Z,13.95
2018-12-27T19:41:57.026Z,14.58
2018-12-27T19:42:30.623Z,13.62
2018-12-27T19:43:04.365Z,13.35
2018-12-27T19:43:37.892Z,13.00
2018-12-27T19:44:12.094Z,13.30
2018-12-27T19:44:45.662Z,15.03
2018-12-27T19:45:38.741Z,13.90
2018-12-27T19:46:12.510Z,13.32
2018-12-27T19:46:46.064Z,14.58
2018-12-27T19:47:20.064Z,14.70
2018-12-27T19:47:54.013Z,13.20
2018-12-27T19:48:27.508Z,15.10
2018-12-27T19:49:01.024Z,13.48
2018-12-27T19:49:34.629Z,13.72
2018-12-27T19:50:08.148Z,15.10
2018-12-27T19:50:51.009Z,14.38
2018-12-27T19:51:24.534Z,13.40
2018-12-27T19:51:58.079Z,15.00
2018-12-27T19:52:31.609Z,14.10
2018-12-27T19:53:05.135Z,14.15
2018-12-27T19:53:39.930Z,14.50
2018-12-27T19:54:15.225Z,14.60
2018-12-27T19:54:48.737Z,14.78
2018-12-27T19:55:22.246Z,14.55
2018-12-27T19:55:55.805Z,15.38
2018-12-27T19:56:30.164Z,15.78
2018-12-27T19:57:22.812Z,13.08
2018-12-27T19:57:56.369Z,13.88
2018-12-27T19:58:29.930Z,15.10
2018-12-27T19:59:03.498Z,15.43
2018-12-27T19:59:37.004Z,14.33
2018-12-27T20:00:10.833Z,13.38
2018-12-27T20:00:44.462Z,14.50
2018-12-27T20:01:17.975Z,16.27
2018-12-27T20:01:51.525Z,15.60
2018-12-27T20:02:25.162Z,15.78
2018-12-27T20:02:58.697Z,14.00
2018-12-27T20:03:32.296Z,15.85
2018-12-27T20:04:05.819Z,15.10
2018-12-27T20:04:39.458Z,15.93
2018-12-27T20:05:12.957Z,15.55
2018-12-27T20:05:46.462Z,15.72
2018-12-27T20:06:19.995Z,15.03
2018-12-27T20:06:53.516Z,16.15
2018-12-27T20:07:27.061Z,14.40
2018-12-27T20:08:00.540Z,14.55
2018-12-27T20:08:34.058Z,16.65
2018-12-27T20:09:07.569Z,16.20
2018-12-27T20:09:41.091Z,15.85
2018-12-27T20:10:14.863Z,16.70
2018-12-27T20:10:48.486Z,14.70
2018-12-27T20:11:22.007Z,16.02
2018-12-27T20:11:55.528Z,16.40
2018-12-27T20:12:29.039Z,15.65
2018-12-27T20:13:02.566Z,17.20
2018-12-27T20:13:36.479Z,17.25
2018-12-27T20:14:10.054Z,16.65
2018-12-27T20:14:43.747Z,17.15
2018-12-27T20:15:17.309Z,16.42
2018-12-27T20:15:50.899Z,17.25
2018-12-27T20:16:24.429Z,17.17
2018-12-27T20:16:57.921Z,15.40
2018-12-27T20:17:31.429Z,15.43
2018-12-27T20:18:04.963Z,15.80
2018-12-27T20:18:38.489Z,17.05
2018-12-27T20:19:12.000Z,17.20
2018-12-27T20:19:45.529Z,16.73
2018-12-27T20:20:19.024Z,15.90
2018-12-27T20:20:52.519Z,16.20
2018-12-27T20:21:26.037Z,17.37
2018-12-27T20:21:59.477Z,15.68
2018-12-27T20:22:33.006Z,16.65
2018-12-27T20:23:06.446Z,17.60
2018-12-27T20:23:39.956Z,16.05
2018-12-27T20:24:13.526Z,17.30
2018-12-27T20:24:47.149Z,16.48
2018-12-27T20:25:20.690Z,19.35
2018-12-27T20:25:54.217Z,16.42
2018-12-27T20:26:27.810Z,17.37
2018-12-27T20:27:01.373Z,16.52
2018-12-27T20:27:35.025Z,16.67
2018-12-27T20:28:08.629Z,18.17
2018-12-27T20:28:42.206Z,17.25
2018-12-27T20:29:15.721Z,17.90
2018-12-27T20:29:49.274Z,17.75
2018-12-27T20:30:22.767Z,17.15
2018-12-27T20:30:56.348Z,18.65
2018-12-27T20:31:29.832Z,18.00
2018-12-27T20:32:03.339Z,17.77
2018-12-27T20:32:36.993Z,16.75
2018-12-27T20:33:10.480Z,18.17
2018-12-27T20:33:43.995Z,17.20
2018-12-27T20:34:17.683Z,18.05
2018-12-27T20:34:51.186Z,18.87
2018-12-27T20:35:24.654Z,20.30
2018-12-27T20:35:58.089Z,19.07
2018-12-27T20:36:31.637Z,16.48
2018-12-27T20:37:05.153Z,17.95
2018-12-27T20:37:38.750Z,17.98
2018-12-27T20:38:12.183Z,18.95
2018-12-27T20:38:45.626Z,18.73
2018-12-27T20:39:19.167Z,19.37
2018-12-27T20:39:52.781Z,19.80
2018-12-27T20:40:26.291Z,17.52
2018-12-27T20:40:59.811Z,19.20
2018-12-27T20:41:33.308Z,20.00
2018-12-27T20:42:06.770Z,18.15
2018-12-27T20:42:40.304Z,18.82
2018-12-27T20:43:13.795Z,18.37
2018-12-27T20:43:47.306Z,19.17
2018-12-27T20:44:20.945Z,20.00
2018-12-27T20:44:54.470Z,17.42
2018-12-27T20:45:28.067Z,19.95
2018-12-27T20:46:01.629Z,17.73
2018-12-27T20:46:35.154Z,18.17
2018-12-27T20:47:08.682Z,19.73
2018-12-27T20:47:42.210Z,19.05
2018-12-27T20:48:15.719Z,18.62
2018-12-27T20:48:49.298Z,19.37
2018-12-27T20:49:22.785Z,18.62
2018-12-27T20:49:56.373Z,18.92
2018-12-27T20:50:29.875Z,19.60
2018-12-27T20:51:03.414Z,19.52
2018-12-27T20:51:36.994Z,19.27
2018-12-27T20:52:10.473Z,19.55
2018-12-27T20:52:44.003Z,17.62
2018-12-27T20:53:17.454Z,20.02
2018-12-27T20:53:50.973Z,20.43
2018-12-27T20:54:24.475Z,19.45
2018-12-27T20:54:58.004Z,19.70
2018-12-27T20:55:31.499Z,19.50
2018-12-27T20:56:04.999Z,19.67
2018-12-27T20:56:38.587Z,20.15
2018-12-27T20:57:12.094Z,18.67
2018-12-27T20:57:45.601Z,19.20
2018-12-27T20:58:19.103Z,19.35
2018-12-27T20:58:52.585Z,19.55
2018-12-27T20:59:26.129Z,19.37
2018-12-27T20:59:59.791Z,20.35
2018-12-27T21:00:33.425Z,19.20
2018-12-27T21:01:07.080Z,20.45
2018-12-27T21:01:40.807Z,19.20
2018-12-27T21:02:14.304Z,19.80
2018-12-27T21:02:47.797Z,19.62
2018-12-27T21:03:21.268Z,20.85
2018-12-27T21:04:13.969Z,19.48
2018-12-27T21:04:47.554Z,18.32
2018-12-27T21:05:24.348Z,18.62
2018-12-27T21:05:57.845Z,18.92
2018-12-27T21:06:31.404Z,20.62
2018-12-27T21:07:05.021Z,19.92
2018-12-27T21:07:38.575Z,19.57
2018-12-27T21:08:14.280Z,19.57
2018-12-27T21:08:47.762Z,21.07
2018-12-27T21:09:21.323Z,19.30
2018-12-27T21:09:54.903Z,20.70
2018-12-27T21:10:28.461Z,20.32
2018-12-27T21:11:02.038Z,21.27
2018-12-27T21:12:30.754Z,18.80
2018-12-27T21:13:04.310Z,25.72
2018-12-27T21:13:37.993Z,21.77
2018-12-27T21:14:14.337Z,21.35
2018-12-27T21:14:47.880Z,20.35
2018-12-27T21:15:21.497Z,22.90
2018-12-27T21:15:55.149Z,21.23
2018-12-27T21:16:28.727Z,20.35
2018-12-27T21:17:02.360Z,21.23
2018-12-27T21:17:35.985Z,21.23
2018-12-27T21:18:09.660Z,21.10
2018-12-27T21:18:43.235Z,20.40
2018-12-27T21:19:16.872Z,19.75
2018-12-27T21:19:50.581Z,19.52
2018-12-27T21:20:43.186Z,20.12
2018-12-27T21:21:16.857Z,19.92
2018-12-27T21:21:50.396Z,21.27
2018-12-27T21:22:23.962Z,23.50
2018-12-27T21:22:57.811Z,20.90
2018-12-27T21:23:31.304Z,22.48
2018-12-27T21:24:05.132Z,23.40
2018-12-27T21:24:38.795Z,23.40
2018-12-27T21:25:12.345Z,21.90
2018-12-27T21:25:45.873Z,20.80
2018-12-27T21:26:19.394Z,23.60
2018-12-27T21:26:53.032Z,20.77
2018-12-27T21:27:26.648Z,22.10
2018-12-27T21:28:55.488Z,21.97
2018-12-27T21:29:29.199Z,20.27
2018-12-27T21:30:02.822Z,24.60
2018-12-27T21:30:36.400Z,23.15
2018-12-27T21:31:11.216Z,21.23
2018-12-27T21:31:44.819Z,21.75
2018-12-27T21:32:18.392Z,20.62
2018-12-27T21:32:52.186Z,22.13
2018-12-27T21:33:31.583Z,21.75
2018-12-27T21:34:05.135Z,22.87
2018-12-27T21:34:38.707Z,23.77
2018-12-27T21:35:12.272Z,22.75
2018-12-27T21:35:46.133Z,23.77
2018-12-27T21:36:19.797Z,22.75
2018-12-27T21:36:53.521Z,23.20
2018-12-27T21:37:27.106Z,22.77
2018-12-27T21:38:00.764Z,21.52
2018-12-27T21:38:34.308Z,21.70
2018-12-27T21:39:08.218Z,22.62
2018-12-27T21:39:41.915Z,20.72
2018-12-27T21:40:15.442Z,21.73
2018-12-27T21:40:49.243Z,22.55
2018-12-27T21:41:22.856Z,22.67
2018-12-27T21:41:56.670Z,20.65
2018-12-27T21:42:30.336Z,22.22
2018-12-27T21:43:04.053Z,23.45
2018-12-27T21:43:37.810Z,22.95
2018-12-27T21:44:11.507Z,21.40
2018-12-27T21:44:45.140Z,23.20
2018-12-27T21:45:18.903Z,21.95
2018-12-27T21:45:52.646Z,23.25
2018-12-27T21:46:26.312Z,20.37
2018-12-27T21:46:59.866Z,20.95
2018-12-27T21:47:33.626Z,21.90
2018-12-27T21:48:07.344Z,20.72
2018-12-27T21:48:41.103Z,21.68
2018-12-27T21:49:14.661Z,21.48
2018-12-27T21:49:48.206Z,21.73
2018-12-27T21:50:21.779Z,21.62
2018-12-27T21:50:55.582Z,22.73
2018-12-27T21:51:29.083Z,22.50
2018-12-27T21:52:02.816Z,23.38
2018-12-27T21:52:36.845Z,21.57
2018-12-27T21:53:10.594Z,23.60
2018-12-27T21:53:44.584Z,22.02
2018-12-27T21:54:18.233Z,23.02
2018-12-27T21:54:52.832Z,21.68
2018-12-27T21:55:26.412Z,22.25
2018-12-27T21:55:59.968Z,22.40
2018-12-27T21:56:33.525Z,23.47
2018-12-27T21:57:07.196Z,21.20
2018-12-27T21:57:41.014Z,22.45
2018-12-27T21:58:14.631Z,21.23
2018-12-27T21:58:48.589Z,22.50
2018-12-27T21:59:41.285Z,21.60
2018-12-27T22:00:14.869Z,19.55
2018-12-27T22:00:48.414Z,20.15
2018-12-27T22:01:22.112Z,21.95
2018-12-27T22:01:55.712Z,21.68
2018-12-27T22:02:29.376Z,22.70
2018-12-27T22:03:02.890Z,20.60
2018-12-27T22:03:44.721Z,22.73
2018-12-27T22:04:18.252Z,21.62
2018-12-27T22:04:52.793Z,21.33
2018-12-27T22:05:26.371Z,22.40
2018-12-27T22:05:59.808Z,20.75
2018-12-27T22:06:33.335Z,22.35
2018-12-27T22:07:08.100Z,21.20
2018-12-27T22:07:41.643Z,20.70
2018-12-27T22:08:15.406Z,22.62
2018-12-27T22:08:52.911Z,21.00
2018-12-27T22:09:26.399Z,20.65
2018-12-27T22:09:59.928Z,20.45
2018-12-27T22:10:34.283Z,19.98
2018-12-27T22:11:07.774Z,21.52
2018-12-27T22:11:41.340Z,19.85
2018-12-27T22:12:14.832Z,20.00
2018-12-27T22:12:48.330Z,19.55
2018-12-27T22:13:21.878Z,22.32
2018-12-27T22:13:55.565Z,21.10
2018-12-27T22:14:33.371Z,21.35
2018-12-27T22:15:06.896Z,19.55
2018-12-27T22:15:40.420Z,20.30
2018-12-27T22:16:14.233Z,21.62
2018-12-27T22:16:47.833Z,20.55
2018-12-27T22:17:21.385Z,21.62
2018-12-27T22:17:55.783Z,22.60
2018-12-27T22:18:29.348Z,19.30
2018-12-27T22:19:02.934Z,19.85
2018-12-27T22:19:36.572Z,21.42
2018-12-27T22:20:17.111Z,21.95
2018-12-27T22:20:50.655Z,20.48
2018-12-27T22:21:24.258Z,20.85
2018-12-27T22:21:57.835Z,20.62
2018-12-27T22:22:37.969Z,18.27
2018-12-27T22:23:13.361Z,21.30
2018-12-27T22:23:49.841Z,19.92
2018-12-27T22:24:23.422Z,20.25
2018-12-27T22:24:56.932Z,18.85
2018-12-27T22:25:30.722Z,19.95
2018-12-27T22:26:04.292Z,19.92
2018-12-27T22:26:37.812Z,19.05
2018-12-27T22:27:14.212Z,20.25
2018-12-27T22:27:47.858Z,18.45
2018-12-27T22:28:21.364Z,19.17
2018-12-27T22:28:54.988Z,19.35
2018-12-27T22:29:28.555Z,17.82
2018-12-27T22:30:02.089Z,19.60
2018-12-27T22:30:35.868Z,19.05
2018-12-27T22:31:09.546Z,23.50
2018-12-27T22:32:48.206Z,18.25
2018-12-27T22:33:21.824Z,19.90
2018-12-27T22:33:55.486Z,20.35
2018-12-27T22:34:29.074Z,21.05
2018-12-27T22:35:02.672Z,19.05
2018-12-27T22:35:36.257Z,18.98
2018-12-27T22:36:16.652Z,19.35
2018-12-27T22:36:50.240Z,19.17
2018-12-27T22:38:12.998Z,20.82
2018-12-27T22:38:46.753Z,22.98
2018-12-27T22:39:20.613Z,19.10
2018-12-27T22:39:58.217Z,19.82
2018-12-27T22:40:45.354Z,21.82
2018-12-27T22:41:18.903Z,18.92
2018-12-27T22:41:52.404Z,19.45
2018-12-27T22:42:25.911Z,20.32
2018-12-27T22:42:59.373Z,18.17
2018-12-27T22:43:32.897Z,18.77
2018-12-27T22:44:06.418Z,18.95
2018-12-27T22:44:39.856Z,19.23
2018-12-27T22:45:13.425Z,20.00
2018-12-27T22:45:46.858Z,19.57
2018-12-27T22:46:20.425Z,18.92
2018-12-27T22:46:54.372Z,22.73
2018-12-27T22:47:27.870Z,20.43
2018-12-27T22:48:01.379Z,19.02
2018-12-27T22:48:34.862Z,19.48
2018-12-27T22:49:08.374Z,19.05
2018-12-27T22:49:41.870Z,19.20
2018-12-27T22:50:15.365Z,19.85
2018-12-27T22:50:48.958Z,19.60
2018-12-27T22:51:22.477Z,18.42
2018-12-27T22:51:56.032Z,19.35
2018-12-27T22:52:29.531Z,17.50
2018-12-27T22:53:02.957Z,18.80
2018-12-27T22:53:36.509Z,19.20
2018-12-27T22:54:10.006Z,19.80
2018-12-27T22:54:43.500Z,20.60
2018-12-27T22:55:16.996Z,18.30
2018-12-27T22:55:56.797Z,21.42
2018-12-27T22:56:30.257Z,18.73
2018-12-27T22:57:03.765Z,20.08
2018-12-27T22:57:37.274Z,19.98
2018-12-27T22:58:10.773Z,17.27
2018-12-27T22:58:44.198Z,19.35
2018-12-27T22:59:17.625Z,19.10
2018-12-27T22:59:51.087Z,18.45
2018-12-27T23:00:38.828Z,17.55
2018-12-27T23:01:12.370Z,19.05
2018-12-27T23:01:45.877Z,18.70
2018-12-27T23:02:19.346Z,18.17
2018-12-27T23:02:52.865Z,19.42
2018-12-27T23:03:26.365Z,21.25
2018-12-27T23:03:59.857Z,18.75
2018-12-27T23:04:34.653Z,18.85
2018-12-27T23:05:08.230Z,17.32
2018-12-27T23:05:41.721Z,19.15
2018-12-27T23:06:15.215Z,18.30
2018-12-27T23:06:48.617Z,19.27
2018-12-27T23:07:22.171Z,17.30
2018-12-27T23:07:55.659Z,17.37
2018-12-27T23:08:29.070Z,17.20
2018-12-27T23:09:03.207Z,19.45
2018-12-27T23:09:37.505Z,18.52
2018-12-27T23:10:11.005Z,17.80
2018-12-27T23:10:44.515Z,17.00
2018-12-27T23:11:18.035Z,18.30
2018-12-27T23:11:51.549Z,19.42
2018-12-27T23:12:25.066Z,17.50
2018-12-27T23:12:58.564Z,19.15